createdAt,value
2023-04-27T00:02:09.460Z,4.30
2023-04-27T00:04:37.778Z,4.90
2023-04-27T00:07:05.638Z,4.40
2023-04-27T00:09:33.329Z,4.80
2023-04-27T00:12:01.489Z,5.50
2023-04-27T00:14:29.234Z,4.80
2023-04-27T00:16:56.993Z,4.90
2023-04-27T00:19:24.663Z,5.10
2023-04-27T00:21:52.424Z,4.60
2023-04-27T00:24:20.035Z,4.90
2023-04-27T00:26:47.673Z,5.60
2023-04-27T00:29:15.651Z,4.70
2023-04-27T00:31:43.561Z,4.60
2023-04-27T00:34:11.206Z,4.80
2023-04-27T00:36:38.878Z,5.80
2023-04-27T00:39:06.662Z,5.00
2023-04-27T00:41:37.891Z,5.20
2023-04-27T00:44:06.011Z,5.40
2023-04-27T00:46:34.335Z,5.00
2023-04-27T00:49:02.826Z,4.90
2023-04-27T00:51:31.405Z,5.70
2023-04-27T00:54:00.201Z,5.70
2023-04-27T00:56:28.049Z,4.70
2023-04-27T00:58:56.040Z,5.10
2023-04-27T01:01:23.733Z,5.10
2023-04-27T01:03:51.785Z,5.40
2023-04-27T01:06:19.703Z,6.10
2023-04-27T01:08:47.370Z,4.80
2023-04-27T01:11:15.359Z,5.80
2023-04-27T01:13:43.118Z,5.60
2023-04-27T01:16:10.731Z,5.20
2023-04-27T01:18:40.735Z,5.30
2023-04-27T01:21:08.483Z,5.30
2023-04-27T01:23:36.667Z,5.90
2023-04-27T01:26:04.593Z,5.30
2023-04-27T01:28:32.258Z,5.30
2023-04-27T01:31:00.052Z,4.70
2023-04-27T01:33:27.676Z,5.60
2023-04-27T01:35:55.551Z,5.40
2023-04-27T01:38:24.338Z,5.80
2023-04-27T01:40:52.199Z,5.60
2023-04-27T01:43:19.861Z,5.20
2023-04-27T01:45:48.671Z,6.20
2023-04-27T01:48:16.740Z,5.90
2023-04-27T01:50:44.394Z,5.30
2023-04-27T01:53:12.163Z,6.20
2023-04-27T01:55:40.031Z,6.30
2023-04-27T01:58:07.788Z,5.70
2023-04-27T02:00:35.463Z,5.70
2023-04-27T02:03:03.561Z,6.90
2023-04-27T02:05:31.472Z,5.80
2023-04-27T02:07:59.237Z,6.50
2023-04-27T02:10:26.871Z,5.90
2023-04-27T02:12:54.690Z,6.00
2023-04-27T02:15:23.011Z,6.90
2023-04-27T02:17:50.784Z,7.50
2023-04-27T02:20:18.591Z,6.40
2023-04-27T02:22:46.240Z,7.00
2023-04-27T02:25:14.417Z,7.20
2023-04-27T02:27:42.101Z,7.10
2023-04-27T02:30:11.866Z,7.20
2023-04-27T02:32:41.404Z,6.70
2023-04-27T02:35:10.153Z,7.40
2023-04-27T02:37:37.887Z,6.60
2023-04-27T02:40:09.601Z,6.60
2023-04-27T02:42:39.108Z,6.10
2023-04-27T02:45:08.246Z,7.10
2023-04-27T02:47:36.252Z,6.80
2023-04-27T02:50:04.742Z,5.50
2023-04-27T02:52:32.411Z,5.70
2023-04-27T02:55:00.108Z,7.10
2023-04-27T02:57:28.155Z,6.00
2023-04-27T02:59:55.839Z,6.40
2023-04-27T03:02:23.720Z,6.30
2023-04-27T03:04:55.436Z,6.20
2023-04-27T03:07:23.117Z,7.00
2023-04-27T03:09:50.968Z,6.40
2023-04-27T03:12:18.689Z,6.80
2023-04-27T03:14:46.372Z,6.00
2023-04-27T03:17:14.041Z,6.50
2023-04-27T03:19:41.906Z,6.00
2023-04-27T03:22:09.563Z,6.90
2023-04-27T03:24:37.338Z,6.60
2023-04-27T03:27:05.004Z,6.20
2023-04-27T03:29:32.761Z,6.20
2023-04-27T03:32:01.077Z,6.80
2023-04-27T03:34:28.734Z,6.60
2023-04-27T03:36:56.971Z,6.40
2023-04-27T03:39:24.688Z,5.80
2023-04-27T03:41:52.394Z,6.90
2023-04-27T03:44:20.016Z,6.00
2023-04-27T03:46:47.619Z,7.10
2023-04-27T03:49:15.373Z,6.70
2023-04-27T03:51:44.190Z,6.10
2023-04-27T03:54:11.815Z,6.50
2023-04-27T03:56:39.538Z,7.60
2023-04-27T03:59:07.258Z,7.50
2023-04-27T04:01:35.028Z,6.10
2023-04-27T04:04:02.924Z,7.10
2023-04-27T04:06:31.202Z,6.50
2023-04-27T04:08:59.028Z,6.30
2023-04-27T04:11:27.631Z,5.80
2023-04-27T04:13:55.501Z,6.80
2023-04-27T04:16:23.358Z,8.10
2023-04-27T04:18:51.512Z,6.50
2023-04-27T04:21:19.142Z,7.50
2023-04-27T04:23:46.803Z,6.60
2023-04-27T04:26:14.993Z,6.80
2023-04-27T04:28:44.312Z,7.30
2023-04-27T04:31:13.565Z,6.70
2023-04-27T04:33:41.372Z,6.70
2023-04-27T04:36:10.989Z,6.60
2023-04-27T04:38:38.878Z,6.10
2023-04-27T04:41:07.437Z,6.80
2023-04-27T04:43:35.084Z,5.00
2023-04-27T04:46:02.829Z,5.70
2023-04-27T04:48:30.501Z,5.30
2023-04-27T04:50:58.199Z,6.70
2023-04-27T04:53:26.389Z,6.30
2023-04-27T04:55:54.120Z,8.50
2023-04-27T04:58:21.768Z,6.70
2023-04-27T05:00:49.470Z,6.40
2023-04-27T05:03:17.513Z,8.90
2023-04-27T05:05:45.583Z,6.60
2023-04-27T05:08:13.386Z,5.20
2023-04-27T05:10:41.119Z,5.70
2023-04-27T05:13:08.873Z,5.70
2023-04-27T05:15:37.582Z,5.40
2023-04-27T05:18:05.391Z,7.10
2023-04-27T05:20:37.677Z,7.00
2023-04-27T05:23:05.580Z,5.50
2023-04-27T05:25:34.649Z,5.90
2023-04-27T05:28:02.305Z,6.00
2023-04-27T05:30:29.945Z,5.80
2023-04-27T05:32:57.565Z,6.00
2023-04-27T05:35:25.237Z,6.00
2023-04-27T05:37:52.956Z,6.40
2023-04-27T05:40:20.615Z,6.70
2023-04-27T05:42:49.207Z,5.40
2023-04-27T05:45:16.948Z,7.00
2023-04-27T05:47:44.640Z,6.80
2023-04-27T05:50:12.591Z,6.90
2023-04-27T05:52:40.790Z,6.90
2023-04-27T05:55:08.736Z,6.10
2023-04-27T05:57:36.446Z,5.10
2023-04-27T06:00:09.266Z,5.50
2023-04-27T06:02:37.088Z,5.50
2023-04-27T06:05:05.599Z,6.00
2023-04-27T06:07:33.618Z,6.60
2023-04-27T06:10:01.354Z,6.40
2023-04-27T06:12:29.075Z,7.00
2023-04-27T06:14:56.728Z,5.50
2023-04-27T06:17:24.445Z,6.70
2023-04-27T06:19:52.201Z,6.00
2023-04-27T06:22:19.967Z,4.90
2023-04-27T06:24:47.863Z,5.50
2023-04-27T06:27:15.690Z,5.70
2023-04-27T06:29:43.377Z,6.00
2023-04-27T06:32:11.225Z,7.40
2023-04-27T06:34:38.925Z,6.20
2023-04-27T06:37:06.668Z,7.20
2023-04-27T06:39:35.398Z,6.50
2023-04-27T06:42:05.909Z,7.40
2023-04-27T06:44:33.627Z,6.60
2023-04-27T06:47:01.300Z,6.30
2023-04-27T06:49:29.059Z,7.10
2023-04-27T06:51:57.321Z,7.30
2023-04-27T06:54:25.194Z,6.20
2023-04-27T06:56:54.808Z,8.50
2023-04-27T06:59:22.527Z,7.50
2023-04-27T07:01:50.298Z,7.40
2023-04-27T07:04:18.320Z,6.70
2023-04-27T07:06:46.388Z,6.90
2023-04-27T07:09:26.450Z,7.00
2023-04-27T07:11:56.023Z,6.60
2023-04-27T07:14:23.886Z,6.80
2023-04-27T07:16:51.659Z,6.20
2023-04-27T07:19:19.541Z,6.00
2023-04-27T07:21:47.381Z,7.70
2023-04-27T07:24:15.121Z,7.10
2023-04-27T07:26:42.813Z,5.80
2023-04-27T07:29:25.737Z,6.20
2023-04-27T07:31:56.109Z,6.70
2023-04-27T07:34:24.183Z,6.00
2023-04-27T07:36:54.466Z,6.50
2023-04-27T07:39:22.483Z,7.10
2023-04-27T07:41:50.353Z,6.60
2023-04-27T07:44:19.110Z,6.50
2023-04-27T07:46:49.009Z,5.10
2023-04-27T07:49:17.050Z,6.20
2023-04-27T07:51:44.912Z,5.30
2023-04-27T07:54:12.642Z,5.40
2023-04-27T07:56:43.134Z,5.60
2023-04-27T07:59:11.445Z,5.20
2023-04-27T08:01:39.406Z,5.40
2023-04-27T08:04:07.340Z,4.70
2023-04-27T08:06:36.192Z,5.60
2023-04-27T08:09:05.393Z,5.40
2023-04-27T08:11:33.166Z,4.60
2023-04-27T08:14:01.228Z,4.60
2023-04-27T08:16:28.964Z,4.70
2023-04-27T08:18:57.549Z,4.80
2023-04-27T08:21:28.465Z,5.20
2023-04-27T08:23:56.784Z,4.00
2023-04-27T08:26:26.290Z,3.50
2023-04-27T08:28:56.360Z,3.90
2023-04-27T08:31:25.378Z,5.50
2023-04-27T08:33:54.114Z,3.90
2023-04-27T08:36:26.336Z,4.80
2023-04-27T08:38:54.125Z,4.80
2023-04-27T08:41:23.524Z,4.60
2023-04-27T08:43:52.093Z,4.50
2023-04-27T08:46:24.009Z,4.80
2023-04-27T08:48:53.015Z,3.90
2023-04-27T08:51:21.866Z,4.90
2023-04-27T08:53:54.633Z,4.10
2023-04-27T08:56:25.250Z,4.70
2023-04-27T08:58:53.157Z,3.90
2023-04-27T09:01:24.645Z,4.60
2023-04-27T09:03:58.736Z,4.10
2023-04-27T09:06:31.970Z,4.50
2023-04-27T09:09:00.889Z,5.30
2023-04-27T09:11:36.718Z,4.70
2023-04-27T09:14:17.033Z,3.70
2023-04-27T09:16:45.172Z,3.80
2023-04-27T09:19:24.466Z,4.70
2023-04-27T09:22:04.410Z,3.80
2023-04-27T09:24:32.129Z,4.00
2023-04-27T09:27:01.095Z,4.40
2023-04-27T09:29:39.081Z,3.50
2023-04-27T09:32:17.704Z,3.10
2023-04-27T09:34:45.778Z,3.90
2023-04-27T09:37:14.759Z,3.60
2023-04-27T09:39:43.017Z,3.60
2023-04-27T09:42:12.694Z,3.90
2023-04-27T09:44:40.719Z,2.90
2023-04-27T09:47:10.758Z,3.30
2023-04-27T09:49:39.005Z,2.80
2023-04-27T09:52:06.971Z,2.70
2023-04-27T09:54:36.612Z,4.80
2023-04-27T09:57:36.192Z,4.00
2023-04-27T10:00:20.616Z,3.20
2023-04-27T10:03:23.738Z,3.50
2023-04-27T10:06:06.855Z,4.10
2023-04-27T10:08:36.141Z,4.00
2023-04-27T10:11:15.406Z,3.90
2023-04-27T10:13:54.809Z,2.90
2023-04-27T10:16:23.243Z,3.70
2023-04-27T10:18:55.446Z,4.30
2023-04-27T10:21:23.938Z,3.90
2023-04-27T10:23:52.470Z,4.40
2023-04-27T10:26:24.491Z,4.00
2023-04-27T10:29:09.184Z,4.50
2023-04-27T10:31:45.213Z,4.00
2023-04-27T10:34:21.169Z,3.60
2023-04-27T10:36:49.217Z,3.50
2023-04-27T10:39:47.086Z,2.80
2023-04-27T10:42:30.542Z,2.90
2023-04-27T10:44:58.641Z,3.10
2023-04-27T10:47:37.611Z,3.30
2023-04-27T10:50:07.770Z,3.40
2023-04-27T10:52:35.605Z,3.20
2023-04-27T10:55:14.870Z,3.90
2023-04-27T10:57:56.018Z,3.40
2023-04-27T11:00:25.534Z,3.10
2023-04-27T11:02:55.033Z,3.10
2023-04-27T11:05:29.513Z,2.80
2023-04-27T11:08:07.330Z,2.80
2023-04-27T11:10:38.378Z,3.30
2023-04-27T11:13:15.019Z,2.70
2023-04-27T11:15:51.138Z,3.00
2023-04-27T11:18:20.636Z,2.80
2023-04-27T11:20:51.056Z,1.80
2023-04-27T11:23:26.320Z,2.00
2023-04-27T11:25:55.194Z,1.60
2023-04-27T11:28:24.439Z,2.20
2023-04-27T11:30:59.723Z,2.10
2023-04-27T11:33:28.408Z,1.50
2023-04-27T11:35:57.522Z,2.10
2023-04-27T11:38:27.651Z,2.10
2023-04-27T11:41:05.955Z,2.20
2023-04-27T11:43:34.630Z,2.10
2023-04-27T11:46:04.446Z,2.70
2023-04-27T11:48:32.802Z,1.80
2023-04-27T11:51:01.319Z,2.10
2023-04-27T11:53:34.014Z,2.30
2023-04-27T11:56:07.878Z,2.40
2023-04-27T11:58:37.486Z,2.60
2023-04-27T12:01:06.974Z,2.60
2023-04-27T12:03:35.378Z,2.40
2023-04-27T12:06:21.544Z,2.10
2023-04-27T12:08:51.485Z,2.50
2023-04-27T12:11:19.551Z,2.00
2023-04-27T12:13:47.310Z,2.20
2023-04-27T12:16:15.692Z,2.10
2023-04-27T12:18:43.732Z,1.80
2023-04-27T12:21:11.710Z,1.90
2023-04-27T12:23:39.394Z,2.30
2023-04-27T12:26:07.343Z,1.50
2023-04-27T12:28:35.162Z,2.00
2023-04-27T12:31:05.210Z,1.70
2023-04-27T12:33:33.099Z,2.20
2023-04-27T12:36:00.956Z,2.00
2023-04-27T12:38:29.349Z,1.90
2023-04-27T12:40:58.921Z,1.90
2023-04-27T12:43:27.102Z,1.90
2023-04-27T12:45:55.010Z,1.80
2023-04-27T12:48:23.682Z,1.70
2023-04-27T12:50:51.628Z,1.60
2023-04-27T12:53:19.518Z,1.60
2023-04-27T12:55:47.602Z,2.00
2023-04-27T12:58:15.842Z,1.50
2023-04-27T13:00:44.211Z,1.60
2023-04-27T13:03:12.276Z,2.00
2023-04-27T13:05:40.199Z,1.40
2023-04-27T13:08:07.889Z,1.70
2023-04-27T13:10:36.754Z,1.90
2023-04-27T13:13:04.516Z,1.60
2023-04-27T13:15:32.361Z,1.70
2023-04-27T13:18:01.948Z,1.60
2023-04-27T13:20:29.796Z,1.50
2023-04-27T13:22:57.518Z,2.20
2023-04-27T13:25:25.479Z,2.00
2023-04-27T13:27:54.115Z,2.10
2023-04-27T13:30:21.861Z,1.70
2023-04-27T13:32:49.590Z,1.90
2023-04-27T13:35:17.284Z,1.90
2023-04-27T13:37:45.541Z,1.80
2023-04-27T13:40:13.646Z,1.80
2023-04-27T13:42:41.824Z,2.30
2023-04-27T13:45:10.539Z,1.80
2023-04-27T13:47:39.993Z,2.10
2023-04-27T13:50:12.235Z,1.90
2023-04-27T13:52:40.661Z,2.00
2023-04-27T13:55:10.557Z,2.30
2023-04-27T13:57:38.323Z,2.10
2023-04-27T14:00:13.167Z,2.00
2023-04-27T14:02:41.386Z,1.80
2023-04-27T14:05:09.436Z,2.20
2023-04-27T14:07:37.268Z,1.80
2023-04-27T14:10:05.881Z,2.30
2023-04-27T14:12:33.924Z,2.00
2023-04-27T14:15:01.566Z,2.40
2023-04-27T14:17:29.987Z,2.30
2023-04-27T14:19:57.825Z,2.40
2023-04-27T14:22:26.372Z,1.90
2023-04-27T14:24:56.790Z,1.70
2023-04-27T14:27:24.711Z,1.60
2023-04-27T14:29:52.474Z,1.80
2023-04-27T14:32:21.425Z,2.20
2023-04-27T14:34:49.375Z,2.00
2023-04-27T14:37:17.716Z,1.90
2023-04-27T14:39:46.507Z,2.40
2023-04-27T14:42:14.458Z,2.40
2023-04-27T14:44:42.539Z,2.30
2023-04-27T14:47:10.828Z,2.60
2023-04-27T14:49:39.095Z,2.30
2023-04-27T14:52:08.471Z,2.70
2023-04-27T14:54:39.045Z,2.60
2023-04-27T14:57:08.183Z,2.20
2023-04-27T14:59:36.316Z,2.40
2023-04-27T15:02:05.000Z,2.30
2023-04-27T15:04:35.665Z,2.90
2023-04-27T15:07:04.744Z,2.40
2023-04-27T15:09:34.396Z,2.50
2023-04-27T15:12:04.246Z,2.70
2023-04-27T15:14:33.506Z,3.00
2023-04-27T15:17:01.473Z,3.00
2023-04-27T15:19:29.646Z,2.80
2023-04-27T15:21:58.021Z,2.70
2023-04-27T15:24:26.098Z,2.70
2023-04-27T15:26:54.608Z,2.50
2023-04-27T15:29:22.912Z,2.90
2023-04-27T15:31:51.163Z,3.80
2023-04-27T15:34:20.678Z,3.20
2023-04-27T15:36:49.098Z,3.00
2023-04-27T15:39:17.042Z,2.60
2023-04-27T15:41:45.275Z,2.50
2023-04-27T15:44:13.399Z,3.00
2023-04-27T15:46:42.014Z,2.90
2023-04-27T15:49:13.026Z,2.60
2023-04-27T15:51:41.416Z,2.70
2023-04-27T15:54:09.372Z,2.80
2023-04-27T15:56:37.475Z,2.80
2023-04-27T15:59:07.291Z,2.20
2023-04-27T16:01:35.968Z,3.10
2023-04-27T16:04:04.497Z,2.80
2023-04-27T16:06:35.893Z,4.70
2023-04-27T16:09:05.068Z,3.30
2023-04-27T16:11:33.826Z,3.70
2023-04-27T16:14:02.297Z,4.60
2023-04-27T16:16:30.658Z,3.80
2023-04-27T16:18:59.964Z,3.80
2023-04-27T16:21:28.795Z,4.50
2023-04-27T16:23:57.858Z,6.00
2023-04-27T16:26:27.835Z,9.90
2023-04-27T16:28:57.777Z,7.40
2023-04-27T16:31:25.930Z,9.50
2023-04-27T16:33:54.520Z,7.40
2023-04-27T16:36:23.394Z,6.20
2023-04-27T16:38:52.057Z,5.80
2023-04-27T16:41:20.987Z,4.90
2023-04-27T16:43:51.138Z,4.80
2023-04-27T16:46:19.480Z,4.20
2023-04-27T16:48:47.713Z,3.60
2023-04-27T16:51:15.770Z,4.00
2023-04-27T16:53:43.875Z,3.40
2023-04-27T16:56:13.717Z,3.00
2023-04-27T16:58:41.837Z,3.90
2023-04-27T17:01:09.586Z,3.60
2023-04-27T17:03:37.530Z,3.40
2023-04-27T17:06:05.539Z,3.10
2023-04-27T17:08:33.641Z,3.90
2023-04-27T17:11:01.684Z,3.50
2023-04-27T17:13:32.970Z,3.30
2023-04-27T17:16:01.948Z,2.70
2023-04-27T17:18:31.916Z,4.00
2023-04-27T17:21:01.144Z,3.10
2023-04-27T17:23:29.812Z,3.60
2023-04-27T17:25:58.621Z,4.10
2023-04-27T17:28:26.683Z,3.50
2023-04-27T17:30:54.324Z,3.90
2023-04-27T17:33:23.319Z,3.80
2023-04-27T17:35:52.727Z,3.40
2023-04-27T17:38:22.050Z,3.80
2023-04-27T17:40:50.931Z,3.30
2023-04-27T17:43:19.310Z,3.60
2023-04-27T17:45:48.262Z,3.10
2023-04-27T17:48:17.343Z,3.30
2023-04-27T17:50:46.196Z,3.30
2023-04-27T17:53:15.791Z,4.10
2023-04-27T17:55:48.222Z,4.10
2023-04-27T17:58:17.386Z,3.40
2023-04-27T18:00:46.534Z,3.40
2023-04-27T18:03:16.967Z,4.00
2023-04-27T18:05:47.006Z,3.20
2023-04-27T18:08:15.608Z,3.30
2023-04-27T18:10:45.619Z,3.70
2023-04-27T18:13:14.080Z,3.80
2023-04-27T18:15:42.966Z,6.60
2023-04-27T18:18:14.035Z,8.30
2023-04-27T18:20:45.479Z,8.00
2023-04-27T18:23:15.337Z,8.90
2023-04-27T18:25:44.695Z,8.20
2023-04-27T18:28:14.020Z,7.60
2023-04-27T18:30:43.390Z,7.70
2023-04-27T18:33:12.696Z,8.40
2023-04-27T18:35:41.524Z,9.00
2023-04-27T18:38:10.712Z,7.90
2023-04-27T18:40:41.143Z,7.60
2023-04-27T18:43:12.605Z,7.40
2023-04-27T18:45:42.379Z,8.90
2023-04-27T18:48:11.452Z,7.90
2023-04-27T18:50:41.728Z,9.00
2023-04-27T18:53:11.679Z,10.00
2023-04-27T18:55:40.322Z,10.80
2023-04-27T18:58:09.174Z,10.60
2023-04-27T19:00:41.797Z,12.80
2023-04-27T19:03:11.291Z,13.40
2023-04-27T19:05:43.331Z,13.60
2023-04-27T19:08:13.132Z,12.70
2023-04-27T19:10:42.855Z,14.40
2023-04-27T19:13:12.560Z,10.90
2023-04-27T19:15:42.927Z,9.70
2023-04-27T19:18:12.895Z,8.20
2023-04-27T19:20:42.797Z,7.60
2023-04-27T19:23:13.317Z,9.40
2023-04-27T19:25:42.264Z,8.60
2023-04-27T19:28:11.109Z,8.50
2023-04-27T19:30:39.618Z,8.10
2023-04-27T19:33:08.308Z,7.80
2023-04-27T19:35:37.440Z,8.40
2023-04-27T19:38:06.954Z,8.90
2023-04-27T19:40:37.161Z,13.50
2023-04-27T19:43:07.290Z,13.50
2023-04-27T19:45:39.115Z,11.30
2023-04-27T19:48:08.414Z,10.30
2023-04-27T19:50:38.664Z,10.00
2023-04-27T19:53:07.550Z,10.20
2023-04-27T19:55:36.551Z,10.50
2023-04-27T19:58:05.465Z,11.00
2023-04-27T20:00:34.986Z,10.10
2023-04-27T20:03:04.092Z,11.00
2023-04-27T20:05:35.738Z,11.50
2023-04-27T20:08:04.761Z,11.40
2023-04-27T20:10:34.318Z,9.90
2023-04-27T20:13:02.720Z,9.40
2023-04-27T20:15:31.218Z,9.50
2023-04-27T20:17:59.360Z,8.60
2023-04-27T20:20:28.407Z,8.80
2023-04-27T20:22:56.886Z,10.00
2023-04-27T20:25:26.095Z,9.40
2023-04-27T20:27:54.650Z,10.80
2023-04-27T20:30:22.869Z,10.50
2023-04-27T20:32:51.342Z,10.60
2023-04-27T20:35:20.324Z,11.10
2023-04-27T20:37:48.667Z,11.30
2023-04-27T20:40:18.300Z,10.20
2023-04-27T20:42:47.093Z,12.00
2023-04-27T20:45:15.550Z,11.50
2023-04-27T20:47:43.949Z,12.00
2023-04-27T20:50:12.674Z,12.10
2023-04-27T20:52:41.760Z,11.00
2023-04-27T20:55:10.492Z,11.90
2023-04-27T20:57:39.499Z,11.80
2023-04-27T21:00:10.132Z,13.40
2023-04-27T21:02:38.938Z,12.80
2023-04-27T21:05:07.758Z,13.20
2023-04-27T21:07:36.407Z,14.80
2023-04-27T21:10:07.098Z,11.60
2023-04-27T21:12:35.996Z,12.40
2023-04-27T21:15:04.732Z,12.90
2023-04-27T21:17:33.562Z,12.50
2023-04-27T21:20:02.398Z,11.30
2023-04-27T21:22:31.008Z,12.00
2023-04-27T21:24:59.368Z,11.20
2023-04-27T21:27:31.705Z,12.80
2023-04-27T21:30:00.068Z,9.80
2023-04-27T21:32:29.306Z,10.90
2023-04-27T21:34:57.744Z,10.90
2023-04-27T21:37:26.550Z,10.90
2023-04-27T21:39:55.024Z,11.50
2023-04-27T21:42:24.810Z,11.10
2023-04-27T21:44:53.093Z,12.00
2023-04-27T21:47:20.987Z,11.60
2023-04-27T21:49:50.594Z,11.90
2023-04-27T21:52:21.896Z,12.50
2023-04-27T21:54:50.175Z,10.70
2023-04-27T21:57:19.932Z,9.70
2023-04-27T21:59:48.835Z,10.60
2023-04-27T22:02:17.846Z,11.80
2023-04-27T22:04:46.690Z,11.10
2023-04-27T22:07:15.029Z,10.60
2023-04-27T22:09:43.980Z,10.50
2023-04-27T22:12:12.737Z,10.60
2023-04-27T22:14:43.554Z,11.30
2023-04-27T22:17:40.034Z,10.10
2023-04-27T22:20:13.142Z,10.20
2023-04-27T22:22:41.564Z,8.80
2023-04-27T22:25:12.043Z,9.30
2023-04-27T22:27:44.879Z,9.20
2023-04-27T22:30:15.764Z,9.80
2023-04-27T22:32:45.492Z,10.80
2023-04-27T22:35:25.504Z,11.10
2023-04-27T22:37:56.685Z,9.10
2023-04-27T22:40:25.727Z,9.80
2023-04-27T22:42:55.908Z,9.90
2023-04-27T22:45:24.879Z,9.60
2023-04-27T22:47:53.055Z,9.10
2023-04-27T22:50:21.867Z,9.40
2023-04-27T22:52:50.277Z,8.60
2023-04-27T22:55:19.631Z,9.60
2023-04-27T22:57:50.215Z,9.90
2023-04-27T23:00:18.505Z,9.50
2023-04-27T23:02:48.360Z,9.30
2023-04-27T23:05:16.941Z,10.30
2023-04-27T23:07:46.976Z,10.70
2023-04-27T23:10:15.553Z,10.40
2023-04-27T23:12:43.965Z,9.70
2023-04-27T23:15:12.719Z,8.60
2023-04-27T23:17:41.753Z,9.40
2023-04-27T23:20:24.558Z,9.00
2023-04-27T23:22:56.526Z,9.60
2023-04-27T23:25:26.206Z,9.10
2023-04-27T23:27:54.639Z,10.20
2023-04-27T23:30:23.796Z,10.00
2023-04-27T23:32:52.161Z,9.00
2023-04-27T23:35:21.198Z,8.40
2023-04-27T23:37:50.445Z,10.20
2023-04-27T23:40:18.963Z,8.80
2023-04-27T23:42:50.823Z,9.50
2023-04-27T23:45:21.144Z,8.30
2023-04-27T23:47:49.925Z,8.70
2023-04-27T23:50:19.097Z,8.60
2023-04-27T23:52:48.233Z,8.70
2023-04-27T23:55:17.238Z,9.70
2023-04-27T23:57:46.453Z,9.40
